createdAt,value
2024-02-08T00:00:01.601Z,20.42
2024-02-08T00:04:18.855Z,28.17
2024-02-08T00:08:36.487Z,19.87
2024-02-08T00:12:53.710Z,18.80
2024-02-08T00:17:11.111Z,24.13
2024-02-08T00:21:29.099Z,14.75
2024-02-08T00:25:51.622Z,13.30
2024-02-08T00:30:09.267Z,17.98
2024-02-08T00:34:27.077Z,17.47
2024-02-08T00:38:44.374Z,13.60
2024-02-08T00:43:07.956Z,14.27
2024-02-08T00:47:25.981Z,17.90
2024-02-08T00:51:43.230Z,14.23
2024-02-08T00:56:01.189Z,20.80
2024-02-08T01:00:19.264Z,15.27
2024-02-08T01:04:39.270Z,19.60
2024-02-08T01:08:57.608Z,27.30
2024-02-08T01:13:16.474Z,38.20
2024-02-08T01:17:33.822Z,17.85
2024-02-08T01:21:52.548Z,13.77
2024-02-08T01:26:10.214Z,16.50
2024-02-08T01:30:27.870Z,10.45
2024-02-08T01:34:48.440Z,13.85
2024-02-08T01:39:08.208Z,17.63
2024-02-08T01:43:26.340Z,29.50
2024-02-08T01:47:48.945Z,17.67
2024-02-08T01:52:07.109Z,14.73
2024-02-08T01:56:24.454Z,12.02
2024-02-08T02:00:41.934Z,16.05
2024-02-08T02:05:00.736Z,19.45
2024-02-08T02:09:25.901Z,16.90
2024-02-08T02:13:43.620Z,38.30
2024-02-08T02:18:05.065Z,49.53
2024-02-08T02:22:23.107Z,22.70
2024-02-08T02:26:41.573Z,22.83
2024-02-08T02:30:59.362Z,21.27
2024-02-08T02:35:18.572Z,19.88
2024-02-08T02:39:37.993Z,26.95
2024-02-08T02:43:55.318Z,17.38
2024-02-08T02:48:12.798Z,53.03
2024-02-08T02:52:30.709Z,47.10
2024-02-08T02:56:48.700Z,43.90
2024-02-08T03:01:06.242Z,25.90
2024-02-08T03:05:25.208Z,76.25
2024-02-08T03:13:59.782Z,26.65
2024-02-08T03:18:17.122Z,27.20
2024-02-08T03:22:35.490Z,24.42
2024-02-08T03:31:10.512Z,25.30
2024-02-08T03:35:33.691Z,22.60
2024-02-08T03:39:52.012Z,25.63
2024-02-08T03:48:30.724Z,26.77
2024-02-08T03:52:47.970Z,25.40
2024-02-08T03:57:07.308Z,39.27
2024-02-08T04:01:25.409Z,25.73
2024-02-08T04:05:51.918Z,25.73
2024-02-08T04:10:21.160Z,23.77
2024-02-08T04:15:00.443Z,24.05
2024-02-08T04:19:36.387Z,23.25
2024-02-08T04:24:12.829Z,29.23
2024-02-08T04:28:48.785Z,50.65
2024-02-08T04:33:24.984Z,47.35
2024-02-08T04:38:01.075Z,37.30
2024-02-08T04:42:37.372Z,29.80
2024-02-08T04:47:13.453Z,27.10
2024-02-08T04:51:49.563Z,38.00
2024-02-08T04:56:10.392Z,47.20
2024-02-08T05:00:29.495Z,33.33
2024-02-08T05:04:50.219Z,26.65
2024-02-08T05:09:07.688Z,34.63
2024-02-08T05:13:26.942Z,39.85
2024-02-08T05:17:44.417Z,37.30
2024-02-08T05:22:03.689Z,49.63
2024-02-08T05:26:22.767Z,43.70
2024-02-08T05:30:40.316Z,34.65
2024-02-08T05:34:59.283Z,36.50
2024-02-08T05:39:27.619Z,66.07
2024-02-08T05:43:46.340Z,39.40
2024-02-08T05:48:07.560Z,45.85
2024-02-08T05:52:31.987Z,151.25
2024-02-08T05:56:52.521Z,54.75
2024-02-08T06:01:18.136Z,56.92
2024-02-08T06:05:35.560Z,54.28
2024-02-08T06:10:09.167Z,68.95
2024-02-08T06:14:26.692Z,76.13
2024-02-08T06:18:46.617Z,70.80
2024-02-08T06:23:24.404Z,51.80
2024-02-08T06:27:42.929Z,56.47
2024-02-08T06:36:59.514Z,92.40
2024-02-08T06:41:25.140Z,114.53
2024-02-08T06:45:45.367Z,201.50
2024-02-08T06:50:21.416Z,58.60
2024-02-08T06:54:57.520Z,58.13
2024-02-08T06:59:33.724Z,89.32
2024-02-08T07:04:10.246Z,106.18
2024-02-08T07:08:46.267Z,103.85
2024-02-08T07:13:22.417Z,103.82
2024-02-08T07:17:58.707Z,95.25
2024-02-08T07:22:54.506Z,92.68
2024-02-08T07:27:30.350Z,97.10
2024-02-08T07:32:06.668Z,58.85
2024-02-08T07:36:42.944Z,59.78
2024-02-08T07:41:00.134Z,66.43
2024-02-08T07:45:17.431Z,58.15
2024-02-08T07:49:44.288Z,133.02
2024-02-08T07:54:11.430Z,115.78
2024-02-08T07:58:28.759Z,65.22
2024-02-08T08:02:48.948Z,60.28
2024-02-08T08:07:14.603Z,52.42
2024-02-08T08:11:32.406Z,47.42
2024-02-08T08:16:10.295Z,66.47
2024-02-08T08:20:46.705Z,53.90
2024-02-08T08:25:13.316Z,98.95
2024-02-08T08:29:43.622Z,41.57
2024-02-08T08:34:02.094Z,46.95
2024-02-08T08:38:19.843Z,38.75
2024-02-08T08:42:37.110Z,37.85
2024-02-08T08:46:54.420Z,42.58
2024-02-08T08:51:14.917Z,41.03
2024-02-08T08:55:32.293Z,54.47
2024-02-08T08:59:50.437Z,47.35
2024-02-08T09:04:11.699Z,45.88
2024-02-08T09:08:43.588Z,44.45
2024-02-08T09:13:08.556Z,65.88
2024-02-08T09:17:45.113Z,48.05
2024-02-08T09:22:04.493Z,66.70
2024-02-08T09:26:34.416Z,56.67
2024-02-08T09:30:54.873Z,43.58
2024-02-08T09:35:13.732Z,37.25
2024-02-08T09:39:51.765Z,59.17
2024-02-08T09:44:13.061Z,68.28
2024-02-08T09:48:41.284Z,38.25
2024-02-08T09:53:08.659Z,56.55
2024-02-08T09:57:32.813Z,51.83
2024-02-08T10:01:52.030Z,45.22
2024-02-08T10:06:25.079Z,43.65
2024-02-08T10:11:00.109Z,44.08
2024-02-08T10:15:27.152Z,50.58
2024-02-08T10:20:22.174Z,57.40
2024-02-08T10:25:08.414Z,56.42
2024-02-08T10:29:26.715Z,48.85
2024-02-08T10:33:49.938Z,53.30
2024-02-08T10:38:26.435Z,62.63
2024-02-08T10:42:43.949Z,50.70
2024-02-08T10:47:08.884Z,59.45
2024-02-08T10:51:28.968Z,56.50
2024-02-08T10:56:00.299Z,62.70
2024-02-08T11:00:39.902Z,66.38
2024-02-08T11:05:14.516Z,54.80
2024-02-08T11:09:32.019Z,60.85
2024-02-08T11:13:54.477Z,63.00
2024-02-08T11:18:34.295Z,50.85
2024-02-08T11:22:58.963Z,61.10
2024-02-08T11:27:28.987Z,46.50
2024-02-08T11:31:47.839Z,41.95
2024-02-08T11:36:14.224Z,50.83
2024-02-08T11:40:37.515Z,59.35
2024-02-08T11:45:01.641Z,59.97
2024-02-08T11:49:33.608Z,68.78
2024-02-08T11:54:03.203Z,93.22
2024-02-08T11:58:22.558Z,60.00
2024-02-08T12:02:40.381Z,49.17
2024-02-08T12:07:05.870Z,61.45
2024-02-08T12:11:25.639Z,45.50
2024-02-08T12:16:02.197Z,60.22
2024-02-08T12:20:20.296Z,60.47
2024-02-08T12:24:37.419Z,44.03
2024-02-08T12:28:58.893Z,45.42
2024-02-08T12:33:16.363Z,33.05
2024-02-08T12:37:33.699Z,50.50
2024-02-08T12:41:54.097Z,38.78
2024-02-08T12:46:15.961Z,65.90
2024-02-08T12:50:36.253Z,84.85
2024-02-08T12:54:57.275Z,55.28
2024-02-08T12:59:19.487Z,64.60
2024-02-08T13:03:38.133Z,36.45
2024-02-08T13:07:59.875Z,38.22
2024-02-08T13:12:18.814Z,25.15
2024-02-08T13:16:36.338Z,29.30
2024-02-08T13:20:53.551Z,41.75
2024-02-08T13:25:15.203Z,33.72
2024-02-08T13:29:34.058Z,66.22
2024-02-08T13:33:53.845Z,63.60
2024-02-08T13:38:12.274Z,44.90
2024-02-08T13:42:42.962Z,47.28
2024-02-08T13:47:14.634Z,78.50
2024-02-08T13:51:35.597Z,99.65
2024-02-08T13:55:56.766Z,59.22
2024-02-08T14:00:21.801Z,94.10
2024-02-08T14:04:40.265Z,107.65
2024-02-08T14:09:17.404Z,83.10
2024-02-08T14:13:36.601Z,105.50
2024-02-08T14:17:58.506Z,66.00
2024-02-08T14:22:17.956Z,104.55
2024-02-08T14:26:39.241Z,48.80
2024-02-08T14:30:57.136Z,140.35
2024-02-08T14:35:17.803Z,89.05
2024-02-08T14:39:36.710Z,71.07
2024-02-08T14:44:07.830Z,67.25
2024-02-08T14:48:28.376Z,161.45
2024-02-08T14:52:50.842Z,46.90
2024-02-08T14:57:11.523Z,72.45
2024-02-08T15:01:39.657Z,59.90
2024-02-08T15:06:06.886Z,58.35
2024-02-08T15:10:44.231Z,63.67
2024-02-08T15:15:06.142Z,52.90
2024-02-08T15:19:27.479Z,59.25
2024-02-08T15:24:11.153Z,49.60
2024-02-08T15:28:33.350Z,50.42
2024-02-08T15:33:00.082Z,53.47
2024-02-08T15:37:40.308Z,47.05
2024-02-08T15:42:02.795Z,142.70
2024-02-08T15:46:21.513Z,62.25
2024-02-08T15:50:45.435Z,83.65
2024-02-08T15:55:16.263Z,72.28
2024-02-08T15:59:36.095Z,65.07
2024-02-08T16:04:27.575Z,69.03
2024-02-08T16:08:47.950Z,111.78
2024-02-08T16:13:08.305Z,63.58
2024-02-08T16:17:40.086Z,58.72
2024-02-08T16:22:17.438Z,124.88
2024-02-08T16:26:36.259Z,65.57
2024-02-08T16:31:00.531Z,99.93
2024-02-08T16:35:34.508Z,52.72
2024-02-08T16:40:09.134Z,42.00
2024-02-08T16:45:08.593Z,118.78
2024-02-08T16:49:29.242Z,113.90
2024-02-08T16:54:02.557Z,174.50
2024-02-08T16:58:30.107Z,75.47
2024-02-08T17:03:08.759Z,124.55
2024-02-08T17:07:38.619Z,75.83
2024-02-08T17:12:06.086Z,77.38
2024-02-08T17:16:36.391Z,54.28
2024-02-08T17:20:54.721Z,102.85
2024-02-08T17:25:15.283Z,81.70
2024-02-08T17:29:46.059Z,48.70
2024-02-08T17:34:10.716Z,48.75
2024-02-08T17:38:30.318Z,70.28
2024-02-08T17:42:47.832Z,47.03
2024-02-08T17:47:09.473Z,49.35
2024-02-08T17:51:33.187Z,92.97
2024-02-08T17:56:09.661Z,50.85
2024-02-08T18:00:26.965Z,47.80
2024-02-08T18:04:44.173Z,59.67
2024-02-08T18:09:04.848Z,73.78
2024-02-08T18:13:27.606Z,103.65
2024-02-08T18:17:48.235Z,52.35
2024-02-08T18:22:05.679Z,74.05
2024-02-08T18:26:30.967Z,48.38
2024-02-08T18:30:57.262Z,54.22
2024-02-08T18:35:18.127Z,70.10
2024-02-08T18:39:39.528Z,66.40
2024-02-08T18:43:59.257Z,211.90
2024-02-08T18:48:21.807Z,70.25
2024-02-08T18:52:39.520Z,77.78
2024-02-08T18:57:04.511Z,61.00
2024-02-08T19:01:22.552Z,87.75
2024-02-08T19:05:42.358Z,110.50
2024-02-08T19:10:02.959Z,94.90
2024-02-08T19:14:23.118Z,95.90
2024-02-08T19:18:47.335Z,218.27
2024-02-08T19:23:06.619Z,101.20
2024-02-08T19:27:23.964Z,72.97
2024-02-08T19:31:42.546Z,151.15
2024-02-08T19:36:01.202Z,246.13
2024-02-08T19:40:22.669Z,77.85
2024-02-08T19:44:43.710Z,65.57
2024-02-08T19:49:02.759Z,87.78
2024-02-08T19:53:29.690Z,68.55
2024-02-08T19:57:50.155Z,196.43
2024-02-08T20:02:08.418Z,76.13
2024-02-08T20:06:28.228Z,86.30
2024-02-08T20:10:47.779Z,151.25
2024-02-08T20:15:17.672Z,83.82
2024-02-08T20:19:35.226Z,77.57
2024-02-08T20:23:52.675Z,209.32
2024-02-08T20:28:10.111Z,99.20
2024-02-08T20:32:29.837Z,164.77
2024-02-08T20:36:51.748Z,75.28
2024-02-08T20:41:11.892Z,80.88
2024-02-08T20:45:29.220Z,96.07
2024-02-08T20:49:46.831Z,131.80
2024-02-08T20:54:06.378Z,134.10
2024-02-08T20:58:23.781Z,213.40
2024-02-08T21:02:42.065Z,184.48
2024-02-08T21:07:00.036Z,156.63
2024-02-08T21:11:19.218Z,115.13
2024-02-08T21:15:37.299Z,156.15
2024-02-08T21:19:54.723Z,164.05
2024-02-08T21:24:12.133Z,313.80
2024-02-08T21:28:30.743Z,188.98
2024-02-08T21:32:49.855Z,190.30
2024-02-08T21:37:08.347Z,287.70
2024-02-08T21:41:26.164Z,314.38
2024-02-08T21:45:45.492Z,256.70
2024-02-08T21:50:08.253Z,267.10
2024-02-08T21:54:27.658Z,253.35
2024-02-08T21:58:45.179Z,330.65
2024-02-08T22:03:03.756Z,351.00
2024-02-08T22:07:21.881Z,260.27
2024-02-08T22:11:47.808Z,196.27
2024-02-08T22:16:09.414Z,244.70
2024-02-08T22:20:26.927Z,313.50
2024-02-08T22:24:44.353Z,147.25
2024-02-08T22:29:02.831Z,142.98
2024-02-08T22:37:39.597Z,167.95
2024-02-08T22:41:58.635Z,204.48
2024-02-08T22:46:16.074Z,49.92
2024-02-08T22:50:34.971Z,40.65
2024-02-08T22:54:53.403Z,40.03
2024-02-08T22:59:13.014Z,38.63
2024-02-08T23:03:30.334Z,32.95
2024-02-08T23:07:48.664Z,38.55
2024-02-08T23:12:14.140Z,27.52
2024-02-08T23:16:35.294Z,23.83
2024-02-08T23:20:54.925Z,27.15
2024-02-08T23:25:12.462Z,22.05
2024-02-08T23:29:29.930Z,15.57
2024-02-08T23:33:48.939Z,19.98
2024-02-08T23:38:06.787Z,16.52
2024-02-08T23:42:24.448Z,18.77
2024-02-08T23:46:43.385Z,19.30
2024-02-08T23:51:01.016Z,18.77
2024-02-08T23:55:23.064Z,17.55
2024-02-08T23:59:40.769Z,12.70
